Time,TemperatureF,DewpointF,PressureIn,WindDirection,WindDirectionDegrees,WindSpeedMPH,WindSpeedGustMPH,Humidity,HourlyPrecipIn,Conditions,Clouds,dailyrainin,SolarRadiationWatts/m^2,SoftwareType,DateUTC
2013-07-07 00:01:00,68.0,61.0,-100.00,SSE,151,0.0,4.0,79,0.00,,,0.00,0.000000,,2013-07-07 04:01:00,
2013-07-07 00:21:00,68.0,61.0,-100.00,SSE,151,0.0,4.0,79,0.00,,,0.00,0.000000,,2013-07-07 04:21:00,
2013-07-07 00:31:00,68.0,61.0,-100.00,SSE,151,0.0,4.0,79,0.00,,,0.00,0.000000,,2013-07-07 04:31:00,
2013-07-07 00:41:00,68.0,61.0,-100.00,SSE,151,0.0,4.0,79,0.00,,,0.00,0.000000,,2013-07-07 04:41:00,
2013-07-07 00:51:00,68.0,61.0,-100.00,SSE,151,0.0,4.0,79,0.00,,,0.00,0.000000,,2013-07-07 04:51:00,
2013-07-07 01:01:00,67.0,61.0,-100.00,SSE,168,0.0,3.0,82,0.00,,,0.00,0.000000,,2013-07-07 05:01:00,
2013-07-07 01:21:00,67.0,61.0,-100.00,SSE,168,0.0,3.0,82,0.00,,,0.00,0.000000,,2013-07-07 05:21:00,
2013-07-07 01:32:00,67.0,61.0,-100.00,SSE,168,0.0,3.0,82,0.00,,,0.00,0.000000,,2013-07-07 05:32:00,
2013-07-07 01:41:00,67.0,61.0,-100.00,SSE,168,0.0,3.0,82,0.00,,,0.00,0.000000,,2013-07-07 05:41:00,
2013-07-07 01:51:00,67.0,61.0,-100.00,SSE,168,0.0,3.0,82,0.00,,,0.00,0.000000,,2013-07-07 05:51:00,
2013-07-07 02:01:00,66.0,61.0,-100.00,NNW,336,0.0,2.0,85,0.00,,,0.00,0.000000,,2013-07-07 06:01:00,
2013-07-07 02:22:00,66.0,61.0,-100.00,NNW,336,0.0,2.0,85,0.00,,,0.00,0.000000,,2013-07-07 06:22:00,
2013-07-07 02:32:00,66.0,61.0,-100.00,NNW,336,0.0,2.0,85,0.00,,,0.00,0.000000,,2013-07-07 06:32:00,
2013-07-07 02:43:00,66.0,61.0,-100.00,NNW,336,0.0,2.0,85,0.00,,,0.00,0.000000,,2013-07-07 06:43:00,
2013-07-07 02:52:00,66.0,61.0,-100.00,NNW,336,0.0,2.0,85,0.00,,,0.00,0.000000,,2013-07-07 06:52:00,
2013-07-07 03:01:00,68.0,63.0,-100.00,SE,132,0.0,4.0,84,0.00,,,0.00,0.000000,,2013-07-07 07:01:00,
2013-07-07 03:22:00,68.0,63.0,-100.00,SE,132,0.0,4.0,84,0.00,,,0.00,0.000000,,2013-07-07 07:22:00,
2013-07-07 03:33:00,68.0,63.0,-100.00,SE,132,0.0,4.0,84,0.00,,,0.00,0.000000,,2013-07-07 07:33:00,
2013-07-07 03:44:00,68.0,63.0,-100.00,SE,132,0.0,4.0,84,0.00,,,0.00,0.000000,,2013-07-07 07:44:00,
2013-07-07 03:53:00,68.0,63.0,-100.00,SE,132,0.0,4.0,84,0.00,,,0.00,0.000000,,2013-07-07 07:53:00,
2013-07-07 04:01:00,69.0,64.0,-100.00,NW,320,0.0,4.0,83,0.00,,,0.00,0.000000,,2013-07-07 08:01:00,
2013-07-07 04:22:00,69.0,64.0,-100.00,NW,320,0.0,4.0,83,0.00,,,0.00,0.000000,,2013-07-07 08:22:00,
2013-07-07 04:34:00,69.0,64.0,-100.00,NW,320,0.0,4.0,83,0.00,,,0.00,0.000000,,2013-07-07 08:34:00,
2013-07-07 04:44:00,69.0,64.0,-100.00,NW,320,0.0,4.0,83,0.00,,,0.00,0.000000,,2013-07-07 08:44:00,
2013-07-07 04:53:00,69.0,64.0,-100.00,NW,320,0.0,4.0,83,0.00,,,0.00,0.000000,,2013-07-07 08:53:00,
2013-07-07 05:01:00,69.0,64.0,-100.00,NNE,33,0.0,3.0,85,0.00,,,0.00,0.000000,,2013-07-07 09:01:00,
2013-07-07 05:22:00,69.0,64.0,-100.00,NNE,33,0.0,3.0,85,0.00,,,0.00,0.000000,,2013-07-07 09:22:00,
2013-07-07 05:34:00,69.0,64.0,-100.00,NNE,33,0.0,3.0,85,0.00,,,0.00,0.000000,,2013-07-07 09:34:00,
2013-07-07 05:43:00,69.0,64.0,-100.00,NNE,33,0.0,3.0,85,0.00,,,0.00,0.000000,,2013-07-07 09:43:00,
2013-07-07 05:53:00,69.0,64.0,-100.00,NNE,33,0.0,3.0,85,0.00,,,0.00,0.000000,,2013-07-07 09:53:00,
2013-07-07 06:01:00,68.0,65.0,-100.00,East,89,0.0,1.0,90,0.00,,,0.00,14.000000,,2013-07-07 10:01:00,
2013-07-07 06:23:00,68.0,65.0,-100.00,East,89,0.0,1.0,90,0.00,,,0.00,14.000000,,2013-07-07 10:23:00,
2013-07-07 06:32:00,68.0,65.0,-100.00,East,89,0.0,1.0,90,0.00,,,0.00,14.000000,,2013-07-07 10:32:00,
2013-07-07 06:43:00,68.0,65.0,-100.00,East,89,0.0,1.0,90,0.00,,,0.00,14.000000,,2013-07-07 10:43:00,
2013-07-07 06:52:00,68.0,65.0,-100.00,East,89,0.0,1.0,90,0.00,,,0.00,14.000000,,2013-07-07 10:52:00,
2013-07-07 07:01:00,71.0,67.0,-100.00,NNW,337,0.0,2.0,88,0.00,,,0.00,65.000000,,2013-07-07 11:01:00,
2013-07-07 07:23:00,71.0,67.0,-100.00,NNW,337,0.0,2.0,88,0.00,,,0.00,65.000000,,2013-07-07 11:23:00,
2013-07-07 07:34:00,71.0,67.0,-100.00,NNW,337,0.0,2.0,88,0.00,,,0.00,65.000000,,2013-07-07 11:34:00,
2013-07-07 07:43:00,71.0,67.0,-100.00,NNW,337,0.0,2.0,88,0.00,,,0.00,65.000000,,2013-07-07 11:43:00,
2013-07-07 07:53:00,71.0,67.0,-100.00,NNW,337,0.0,2.0,88,0.00,,,0.00,65.000000,,2013-07-07 11:53:00,
2013-07-07 08:01:00,73.0,68.0,-100.00,North,358,0.0,2.0,84,0.00,,,0.00,116.000000,,2013-07-07 12:01:00,
2013-07-07 08:22:00,73.0,68.0,-100.00,North,358,0.0,2.0,84,0.00,,,0.00,116.000000,,2013-07-07 12:22:00,
2013-07-07 08:34:00,73.0,68.0,-100.00,North,358,0.0,2.0,84,0.00,,,0.00,116.000000,,2013-07-07 12:34:00,
2013-07-07 08:43:00,73.0,68.0,-100.00,North,358,0.0,2.0,84,0.00,,,0.00,116.000000,,2013-07-07 12:43:00,
2013-07-07 08:52:00,73.0,68.0,-100.00,North,358,0.0,2.0,84,0.00,,,0.00,116.000000,,2013-07-07 12:52:00,
2013-07-07 09:01:00,76.0,68.0,-100.00,SW,216,0.0,4.0,76,0.00,,,0.00,205.000000,,2013-07-07 13:01:00,
2013-07-07 09:34:00,76.0,68.0,-100.00,SW,216,0.0,4.0,76,0.00,,,0.00,205.000000,,2013-07-07 13:34:00,
2013-07-07 09:43:00,76.0,68.0,-100.00,SW,216,0.0,4.0,76,0.00,,,0.00,205.000000,,2013-07-07 13:43:00,
2013-07-07 09:52:00,76.0,68.0,-100.00,SW,216,0.0,4.0,76,0.00,,,0.00,205.000000,,2013-07-07 13:52:00,
2013-07-07 10:01:00,75.0,67.0,-100.00,South,178,2.0,6.0,77,0.00,,,0.00,173.000000,,2013-07-07 14:01:00,
2013-07-07 10:34:00,75.0,67.0,-100.00,South,178,2.0,6.0,77,0.00,,,0.00,173.000000,,2013-07-07 14:34:00,
2013-07-07 10:43:00,75.0,67.0,-100.00,South,178,2.0,6.0,77,0.00,,,0.00,173.000000,,2013-07-07 14:43:00,
2013-07-07 10:53:00,75.0,67.0,-100.00,South,178,2.0,6.0,77,0.00,,,0.00,173.000000,,2013-07-07 14:53:00,
2013-07-07 11:01:00,76.0,71.0,-100.00,SW,220,0.0,4.0,85,0.00,,,0.00,154.000000,,2013-07-07 15:01:00,
2013-07-07 11:34:00,76.0,71.0,-100.00,SW,220,0.0,4.0,85,0.00,,,0.00,154.000000,,2013-07-07 15:34:00,
2013-07-07 11:43:00,76.0,71.0,-100.00,SW,220,0.0,4.0,85,0.00,,,0.00,154.000000,,2013-07-07 15:43:00,
2013-07-07 11:52:00,76.0,71.0,-100.00,SW,220,0.0,4.0,85,0.00,,,0.00,154.000000,,2013-07-07 15:52:00,
2013-07-07 12:01:00,73.0,71.0,-100.00,WNW,286,1.0,5.0,92,0.15,,,0.15,101.000000,,2013-07-07 16:01:00,
2013-07-07 12:23:00,73.0,71.0,-100.00,WNW,286,1.0,5.0,92,0.15,,,0.15,101.000000,,2013-07-07 16:23:00,
2013-07-07 12:34:00,73.0,71.0,-100.00,WNW,286,1.0,5.0,92,0.15,,,0.15,101.000000,,2013-07-07 16:34:00,
2013-07-07 12:43:00,73.0,71.0,-100.00,WNW,286,1.0,5.0,92,0.15,,,0.15,101.000000,,2013-07-07 16:43:00,
2013-07-07 12:53:00,73.0,71.0,-100.00,WNW,286,1.0,5.0,92,0.15,,,0.15,101.000000,,2013-07-07 16:53:00,
2013-07-07 13:01:00,77.0,74.0,-100.00,NNE,25,0.0,3.0,92,0.04,,,0.19,244.000000,,2013-07-07 17:01:00,
2013-07-07 13:22:00,77.0,74.0,-100.00,NNE,25,0.0,3.0,92,0.04,,,0.19,244.000000,,2013-07-07 17:22:00,
2013-07-07 13:34:00,77.0,74.0,-100.00,NNE,25,0.0,3.0,92,0.04,,,0.19,244.000000,,2013-07-07 17:34:00,
2013-07-07 13:43:00,77.0,74.0,-100.00,NNE,25,0.0,3.0,92,0.04,,,0.19,244.000000,,2013-07-07 17:43:00,
2013-07-07 13:53:00,77.0,74.0,-100.00,NNE,25,0.0,3.0,92,0.04,,,0.19,244.000000,,2013-07-07 17:53:00,
2013-07-07 14:01:00,77.0,73.0,-100.00,North,0,0.0,3.0,88,0.00,,,0.19,266.000000,,2013-07-07 18:01:00,
2013-07-07 14:33:00,77.0,73.0,-100.00,North,0,0.0,3.0,88,0.00,,,0.19,266.000000,,2013-07-07 18:33:00,
2013-07-07 14:43:00,77.0,73.0,-100.00,North,0,0.0,3.0,88,0.00,,,0.19,266.000000,,2013-07-07 18:43:00,
2013-07-07 14:53:00,77.0,73.0,-100.00,North,0,0.0,3.0,88,0.00,,,0.19,266.000000,,2013-07-07 18:53:00,
2013-07-07 15:01:00,75.0,73.0,-100.00,South,191,0.0,4.0,95,0.13,,,0.32,107.000000,,2013-07-07 19:01:00,
2013-07-07 15:22:00,75.0,73.0,-100.00,South,191,0.0,4.0,95,0.13,,,0.32,107.000000,,2013-07-07 19:22:00,
2013-07-07 15:34:00,75.0,73.0,-100.00,South,191,0.0,4.0,95,0.13,,,0.32,107.000000,,2013-07-07 19:34:00,
2013-07-07 15:43:00,75.0,73.0,-100.00,South,191,0.0,4.0,95,0.13,,,0.32,107.000000,,2013-07-07 19:43:00,
2013-07-07 15:54:00,75.0,73.0,-100.00,South,191,0.0,4.0,95,0.13,,,0.32,107.000000,,2013-07-07 19:54:00,
2013-07-07 16:01:00,75.0,73.0,-100.00,North,352,0.0,4.0,94,0.01,,,0.33,137.000000,,2013-07-07 20:01:00,
2013-07-07 16:22:00,75.0,73.0,-100.00,North,352,0.0,4.0,94,0.01,,,0.33,137.000000,,2013-07-07 20:22:00,
2013-07-07 16:34:00,75.0,73.0,-100.00,North,352,0.0,4.0,94,0.01,,,0.33,137.000000,,2013-07-07 20:34:00,
2013-07-07 16:42:00,75.0,73.0,-100.00,North,352,0.0,4.0,94,0.01,,,0.33,137.000000,,2013-07-07 20:42:00,
2013-07-07 16:53:00,75.0,73.0,-100.00,North,352,0.0,4.0,94,0.01,,,0.33,137.000000,,2013-07-07 20:53:00,
2013-07-07 17:01:00,78.0,74.0,-100.00,North,355,0.0,3.0,88,0.00,,,0.33,328.000000,,2013-07-07 21:01:00,
2013-07-07 17:22:00,78.0,74.0,-100.00,North,355,0.0,3.0,88,0.00,,,0.33,328.000000,,2013-07-07 21:22:00,
2013-07-07 17:34:00,78.0,74.0,-100.00,North,355,0.0,3.0,88,0.00,,,0.33,328.000000,,2013-07-07 21:34:00,
2013-07-07 17:44:00,78.0,74.0,-100.00,North,355,0.0,3.0,88,0.00,,,0.33,328.000000,,2013-07-07 21:44:00,
2013-07-07 17:53:00,78.0,74.0,-100.00,North,355,0.0,3.0,88,0.00,,,0.33,328.000000,,2013-07-07 21:53:00,
2013-07-07 18:01:00,75.0,73.0,-100.00,NNW,337,0.0,4.0,92,0.00,,,-99.99,176.000000,,2013-07-07 22:01:00,
2013-07-07 18:22:00,75.0,73.0,-100.00,NNW,337,0.0,4.0,92,0.00,,,-99.99,176.000000,,2013-07-07 22:22:00,
2013-07-07 18:34:00,75.0,73.0,-100.00,NNW,337,0.0,4.0,92,0.00,,,-99.99,176.000000,,2013-07-07 22:34:00,
2013-07-07 18:44:00,75.0,73.0,-100.00,NNW,337,0.0,4.0,92,0.00,,,-99.99,176.000000,,2013-07-07 22:44:00,
2013-07-07 18:54:00,75.0,73.0,-100.00,NNW,337,0.0,4.0,92,0.00,,,-99.99,176.000000,,2013-07-07 22:54:00,
2013-07-07 19:01:00,74.0,72.0,-100.00,NE,39,0.0,3.0,92,0.00,,,0.33,127.000000,,2013-07-07 23:01:00,
2013-07-07 19:22:00,74.0,72.0,-100.00,NE,39,0.0,3.0,92,0.00,,,0.33,127.000000,,2013-07-07 23:22:00,
2013-07-07 19:33:00,74.0,72.0,-100.00,NE,39,0.0,3.0,92,0.00,,,0.33,127.000000,,2013-07-07 23:33:00,
2013-07-07 19:43:00,74.0,72.0,-100.00,NE,39,0.0,3.0,92,0.00,,,0.33,127.000000,,2013-07-07 23:43:00,
2013-07-07 19:53:00,74.0,72.0,-100.00,NE,39,0.0,3.0,92,0.00,,,0.33,127.000000,,2013-07-07 23:53:00,
2013-07-07 20:01:00,72.0,70.0,-100.00,SSW,192,0.0,2.0,95,0.00,,,0.33,58.000000,,2013-07-08 00:01:00,
2013-07-07 20:22:00,72.0,70.0,-100.00,SSW,192,0.0,2.0,95,0.00,,,0.33,58.000000,,2013-07-08 00:22:00,
2013-07-07 20:33:00,72.0,70.0,-100.00,SSW,192,0.0,2.0,95,0.00,,,0.33,58.000000,,2013-07-08 00:33:00,
2013-07-07 20:43:00,72.0,70.0,-100.00,SSW,192,0.0,2.0,95,0.00,,,0.33,58.000000,,2013-07-08 00:43:00,
2013-07-07 20:53:00,72.0,70.0,-100.00,SSW,192,0.0,2.0,95,0.00,,,0.33,58.000000,,2013-07-08 00:53:00,
2013-07-07 21:01:00,71.0,70.0,-100.00,ESE,114,0.0,0.0,97,0.00,,,0.33,10.000000,,2013-07-08 01:01:00,
2013-07-07 21:22:00,71.0,70.0,-100.00,ESE,114,0.0,0.0,97,0.00,,,0.33,10.000000,,2013-07-08 01:22:00,
2013-07-07 21:32:00,71.0,70.0,-100.00,ESE,114,0.0,0.0,97,0.00,,,0.33,10.000000,,2013-07-08 01:32:00,
2013-07-07 21:43:00,71.0,70.0,-100.00,ESE,114,0.0,0.0,97,0.00,,,0.33,10.000000,,2013-07-08 01:43:00,
2013-07-07 21:53:00,71.0,70.0,-100.00,ESE,114,0.0,0.0,97,0.00,,,0.33,10.000000,,2013-07-08 01:53:00,
2013-07-07 22:01:00,70.0,69.0,-100.00,WSW,238,0.0,0.0,97,0.00,,,0.33,0.000000,,2013-07-08 02:01:00,
2013-07-07 22:33:00,70.0,69.0,-100.00,WSW,238,0.0,0.0,97,0.00,,,0.33,0.000000,,2013-07-08 02:33:00,
2013-07-07 22:43:00,70.0,69.0,-100.00,WSW,238,0.0,0.0,97,0.00,,,0.33,0.000000,,2013-07-08 02:43:00,
2013-07-07 22:52:00,70.0,69.0,-100.00,WSW,238,0.0,0.0,97,0.00,,,0.33,0.000000,,2013-07-08 02:52:00,
2013-07-07 23:01:00,70.0,69.0,-100.00,NNW,346,0.0,1.0,98,0.00,,,0.33,0.000000,,2013-07-08 03:01:00,
2013-07-07 23:23:00,70.0,69.0,-100.00,NNW,346,0.0,1.0,98,0.00,,,0.33,0.000000,,2013-07-08 03:23:00,
2013-07-07 23:34:00,70.0,69.0,-100.00,NNW,346,0.0,1.0,98,0.00,,,0.33,0.000000,,2013-07-08 03:34:00,
2013-07-07 23:43:00,70.0,69.0,-100.00,NNW,346,0.0,1.0,98,0.00,,,0.33,0.000000,,2013-07-08 03:43:00,
2013-07-07 23:52:00,70.0,69.0,-100.00,NNW,346,0.0,1.0,98,0.00,,,0.33,0.000000,,2013-07-08 03:52:00,